KHII/HII METAR and TAF weather

Enter ICAO airport designator
Station Type Date Time Source
KHII METAR 2022/01/26 20:15 UTC NOAA

KHII 262015Z AUTO 32012KT 10SM CLR 17/M07 A3016 RMK AO2


Station Type Date Time Source
KHII Decoded METAR 2022/01/26 20:15 UTC NOAA

Station name not available
Jan 26, 2022 - 03:15 PM EST / 2022.01.26 2015 UTC
Wind: from the NW (320 degrees) at 14 MPH (12 KT):0
Visibility: 10 mile(s):0
Sky conditions: clear
Temperature: 62 F (17 C)
Dew Point: 19 F (-7 C)
Relative Humidity: 18%
Pressure (altimeter): 30.16 in. Hg (1021 hPa)
ob: KHII 262015Z AUTO 32012KT 10SM CLR 17/M07 A3016 RMK AO2
cycle: 20

Station Type Date Time Source
KHII TAF UTC NOAA

Error!

Example: see airport list